createdAt,value
2019-03-12T00:00:35.364Z,1005.93
2019-03-12T00:01:35.159Z,1005.96
2019-03-12T00:02:35.133Z,1005.97
2019-03-12T00:03:35.132Z,1005.95
2019-03-12T00:04:35.143Z,1005.97
2019-03-12T00:05:35.109Z,1005.98
2019-03-12T00:06:35.153Z,1005.94
2019-03-12T00:07:35.110Z,1006.00
2019-03-12T00:08:35.083Z,1006.07
2019-03-12T00:09:35.061Z,1006.00
2019-03-12T00:10:35.125Z,1006.01
2019-03-12T00:11:35.042Z,1005.97
2019-03-12T00:12:35.068Z,1005.94
2019-03-12T00:13:35.047Z,1005.95
2019-03-12T00:14:35.014Z,1005.98
2019-03-12T00:15:34.994Z,1005.99
2019-03-12T00:16:34.994Z,1005.98
2019-03-12T00:17:34.982Z,1005.99
2019-03-12T00:18:35.007Z,1005.99
2019-03-12T00:19:35.026Z,1005.96
2019-03-12T00:20:34.951Z,1006.04
2019-03-12T00:21:34.960Z,1006.02
2019-03-12T00:22:34.920Z,1006.00
2019-03-12T00:23:34.908Z,1006.03
2019-03-12T00:24:34.947Z,1006.01
2019-03-12T00:25:34.911Z,1006.01
2019-03-12T00:26:34.874Z,1006.04
2019-03-12T00:27:34.870Z,1006.03
2019-03-12T00:28:34.859Z,1005.97
2019-03-12T00:29:34.848Z,1005.98
2019-03-12T00:30:34.879Z,1005.92
2019-03-12T00:31:34.844Z,1005.88
2019-03-12T00:32:34.816Z,1005.93
2019-03-12T00:33:34.808Z,1005.94
2019-03-12T00:34:34.796Z,1005.96
2019-03-12T00:35:34.785Z,1005.90
2019-03-12T00:36:34.815Z,1005.91
2019-03-12T00:37:34.777Z,1005.93
2019-03-12T00:38:34.750Z,1005.96
2019-03-12T00:39:34.743Z,1005.97
2019-03-12T00:40:34.739Z,1005.92
2019-03-12T00:41:34.722Z,1005.90
2019-03-12T00:42:34.767Z,1005.88
2019-03-12T00:43:34.701Z,1005.93
2019-03-12T00:44:34.765Z,1005.88
2019-03-12T00:45:34.686Z,1005.88
2019-03-12T00:46:34.681Z,1005.87
2019-03-12T00:47:34.660Z,1005.87
2019-03-12T00:48:34.747Z,1005.86
2019-03-12T00:49:34.642Z,1005.85
2019-03-12T00:50:34.631Z,1005.88
2019-03-12T00:51:34.666Z,1005.94
2019-03-12T00:52:34.619Z,1005.88
2019-03-12T00:53:34.625Z,1005.83
2019-03-12T00:54:34.633Z,1005.84
2019-03-12T00:55:34.600Z,1005.84
2019-03-12T00:56:34.564Z,1005.82
2019-03-12T00:57:34.551Z,1005.82
2019-03-12T00:58:34.553Z,1005.80
2019-03-12T00:59:34.531Z,1005.82
2019-03-12T01:00:34.545Z,1005.86
2019-03-12T01:01:34.503Z,1005.82
2019-03-12T01:02:34.545Z,1005.84
2019-03-12T01:03:34.494Z,1005.82
2019-03-12T01:04:34.470Z,1005.88
2019-03-12T01:05:34.469Z,1005.84
2019-03-12T01:06:34.505Z,1005.82
2019-03-12T01:07:34.473Z,1005.82
2019-03-12T01:08:34.428Z,1005.84
2019-03-12T01:09:34.435Z,1005.81
2019-03-12T01:10:34.414Z,1005.84
2019-03-12T01:11:34.396Z,1005.79
2019-03-12T01:12:34.455Z,1005.76
2019-03-12T01:13:34.384Z,1005.73
2019-03-12T01:14:34.382Z,1005.79
2019-03-12T01:15:34.371Z,1005.77
2019-03-12T01:16:34.346Z,1005.79
2019-03-12T01:17:34.360Z,1005.75
2019-03-12T01:18:34.358Z,1005.74
2019-03-12T01:19:34.327Z,1005.72
2019-03-12T01:20:34.301Z,1005.70
2019-03-12T01:21:34.317Z,1005.64
2019-03-12T01:22:34.293Z,1005.70
2019-03-12T01:23:34.290Z,1005.65
2019-03-12T01:24:34.352Z,1005.65
2019-03-12T01:25:34.250Z,1005.64
2019-03-12T01:26:34.239Z,1005.60
2019-03-12T01:27:34.243Z,1005.63
2019-03-12T01:28:34.258Z,1005.59
2019-03-12T01:29:34.211Z,1005.60
2019-03-12T01:30:34.254Z,1005.59
2019-03-12T01:31:34.189Z,1005.60
2019-03-12T01:32:34.176Z,1005.60
2019-03-12T01:33:34.166Z,1005.55
2019-03-12T01:34:34.168Z,1005.56
2019-03-12T01:35:34.178Z,1005.52
2019-03-12T01:36:34.228Z,1005.43
2019-03-12T01:37:34.126Z,1005.45
2019-03-12T01:38:34.121Z,1005.52
2019-03-12T01:39:34.117Z,1005.47
2019-03-12T01:40:34.103Z,1005.46
2019-03-12T01:41:34.129Z,1005.42
2019-03-12T01:42:34.125Z,1005.43
2019-03-12T01:43:34.064Z,1005.42
2019-03-12T01:44:34.076Z,1005.38
2019-03-12T01:45:34.065Z,1005.43
2019-03-12T01:46:34.027Z,1005.38
2019-03-12T01:47:34.031Z,1005.36
2019-03-12T01:48:34.069Z,1005.32
2019-03-12T01:49:34.010Z,1005.32
2019-03-12T01:50:33.998Z,1005.35
2019-03-12T01:51:33.984Z,1005.28
2019-03-12T01:52:33.971Z,1005.36
2019-03-12T01:53:33.961Z,1005.35
2019-03-12T01:54:33.989Z,1005.29
2019-03-12T01:55:33.943Z,1005.34
2019-03-12T01:56:33.922Z,1005.30
2019-03-12T01:57:34.026Z,1005.26
2019-03-12T01:58:33.906Z,1005.26
2019-03-12T01:59:33.890Z,1005.28
2019-03-12T02:00:34.024Z,1005.26
2019-03-12T02:01:33.870Z,1005.23
2019-03-12T02:02:33.884Z,1005.26
2019-03-12T02:03:33.849Z,1005.23
2019-03-12T02:04:33.842Z,1005.17
2019-03-12T02:05:33.831Z,1005.17
2019-03-12T02:06:33.874Z,1005.15
2019-03-12T02:07:33.805Z,1005.19
2019-03-12T02:08:33.838Z,1005.15
2019-03-12T02:09:33.791Z,1005.15
2019-03-12T02:10:33.815Z,1005.10
2019-03-12T02:11:33.760Z,1005.11
2019-03-12T02:12:33.790Z,1005.10
2019-03-12T02:13:33.789Z,1005.07
2019-03-12T02:14:33.767Z,1005.09
2019-03-12T02:15:33.723Z,1005.14
2019-03-12T02:16:34.993Z,1005.13
2019-03-12T02:17:33.767Z,1005.18
2019-03-12T02:18:33.841Z,1005.14
2019-03-12T02:19:33.674Z,1005.08
2019-03-12T02:20:33.668Z,1005.09
2019-03-12T02:21:33.702Z,1005.05
2019-03-12T02:22:33.687Z,1005.04
2019-03-12T02:23:33.647Z,1005.06
2019-03-12T02:24:33.648Z,1005.04
2019-03-12T02:25:33.629Z,1005.03
2019-03-12T02:26:33.609Z,1004.98
2019-03-12T02:27:33.603Z,1005.01
2019-03-12T02:28:33.595Z,1005.02
2019-03-12T02:29:33.573Z,1004.98
2019-03-12T02:30:33.640Z,1004.97
2019-03-12T02:31:33.559Z,1004.95
2019-03-12T02:32:33.552Z,1004.88
2019-03-12T02:33:33.526Z,1004.93
2019-03-12T02:34:33.511Z,1004.90
2019-03-12T02:35:33.508Z,1004.91
2019-03-12T02:36:33.541Z,1004.93
2019-03-12T02:37:33.504Z,1004.87
2019-03-12T02:38:33.474Z,1004.83
2019-03-12T02:39:33.469Z,1004.79
2019-03-12T02:40:33.454Z,1004.79
2019-03-12T02:41:33.438Z,1004.79
2019-03-12T02:42:33.472Z,1004.77
2019-03-12T02:43:33.432Z,1004.76
2019-03-12T02:44:33.417Z,1004.75
2019-03-12T02:45:33.407Z,1004.80
2019-03-12T02:46:33.384Z,1004.80
2019-03-12T02:47:33.392Z,1004.76
2019-03-12T02:48:33.585Z,1004.77
2019-03-12T02:49:33.376Z,1004.84
2019-03-12T02:50:33.372Z,1004.87
2019-03-12T02:51:33.332Z,1004.80
2019-03-12T02:52:33.329Z,1004.81
2019-03-12T02:53:33.320Z,1004.80
2019-03-12T02:54:33.344Z,1004.80
2019-03-12T02:55:33.295Z,1004.76
2019-03-12T02:56:33.306Z,1004.77
2019-03-12T02:57:33.269Z,1004.76
2019-03-12T02:58:33.261Z,1004.74
2019-03-12T02:59:33.261Z,1004.74
2019-03-12T03:00:33.391Z,1004.74
2019-03-12T03:01:33.232Z,1004.69
2019-03-12T03:02:33.237Z,1004.74
2019-03-12T03:03:33.212Z,1004.71
2019-03-12T03:04:33.198Z,1004.66
2019-03-12T03:05:33.190Z,1004.70
2019-03-12T03:06:33.227Z,1004.70
2019-03-12T03:07:33.172Z,1004.70
2019-03-12T03:08:33.177Z,1004.71
2019-03-12T03:09:33.143Z,1004.71
2019-03-12T03:10:33.148Z,1004.73
2019-03-12T03:11:33.124Z,1004.74
2019-03-12T03:12:33.153Z,1004.73
2019-03-12T03:13:33.107Z,1004.76
2019-03-12T03:14:33.102Z,1004.72
2019-03-12T03:15:33.081Z,1004.73
2019-03-12T03:16:33.074Z,1004.79
2019-03-12T03:17:33.066Z,1004.72
2019-03-12T03:18:33.094Z,1004.74
2019-03-12T03:19:33.058Z,1004.69
2019-03-12T03:20:33.058Z,1004.68
2019-03-12T03:21:33.043Z,1004.68
2019-03-12T03:22:33.047Z,1004.75
2019-03-12T03:23:33.019Z,1004.76
2019-03-12T03:24:33.019Z,1004.69
2019-03-12T03:25:32.975Z,1004.71
2019-03-12T03:26:33.007Z,1004.66
2019-03-12T03:27:32.948Z,1004.65
2019-03-12T03:28:32.968Z,1004.65
2019-03-12T03:29:32.932Z,1004.67
2019-03-12T03:30:32.950Z,1004.65
2019-03-12T03:31:32.915Z,1004.62
2019-03-12T03:32:32.899Z,1004.66
2019-03-12T03:33:32.902Z,1004.65
2019-03-12T03:34:32.925Z,1004.59
2019-03-12T03:35:32.865Z,1004.57
2019-03-12T03:36:32.900Z,1004.52
2019-03-12T03:37:32.838Z,1004.48
2019-03-12T03:38:32.826Z,1004.51
2019-03-12T03:39:32.829Z,1004.54
2019-03-12T03:40:32.829Z,1004.50
2019-03-12T03:41:34.761Z,1004.45
2019-03-12T03:42:32.969Z,1004.53
2019-03-12T03:43:32.820Z,1004.49
2019-03-12T03:44:32.770Z,1004.42
2019-03-12T03:45:32.765Z,1004.38
2019-03-12T03:46:32.750Z,1004.41
2019-03-12T03:47:32.761Z,1004.40
2019-03-12T03:48:32.775Z,1004.44
2019-03-12T03:49:32.739Z,1004.36
2019-03-12T03:50:32.748Z,1004.44
2019-03-12T03:51:32.701Z,1004.40
2019-03-12T03:52:32.690Z,1004.38
2019-03-12T03:53:32.679Z,1004.37
2019-03-12T03:54:32.725Z,1004.35
2019-03-12T03:55:32.662Z,1004.28
2019-03-12T03:56:32.675Z,1004.32
2019-03-12T03:57:32.630Z,1004.32
2019-03-12T03:58:32.637Z,1004.21
2019-03-12T03:59:32.610Z,1004.32
2019-03-12T04:00:32.791Z,1004.30
2019-03-12T04:01:32.591Z,1004.28
2019-03-12T04:02:32.610Z,1004.26
2019-03-12T04:03:32.623Z,1004.31
2019-03-12T04:04:32.554Z,1004.26
2019-03-12T04:05:32.587Z,1004.24
2019-03-12T04:06:34.345Z,1004.23
2019-03-12T04:07:32.535Z,1004.24
2019-03-12T04:08:32.518Z,1004.24
2019-03-12T04:09:32.504Z,1004.19
2019-03-12T04:10:32.522Z,1004.20
2019-03-12T04:11:32.519Z,1004.17
2019-03-12T04:12:32.509Z,1004.14
2019-03-12T04:13:32.458Z,1004.13
2019-03-12T04:14:32.445Z,1004.03
2019-03-12T04:15:32.461Z,1004.06
2019-03-12T04:16:32.428Z,1004.08
2019-03-12T04:17:32.434Z,1004.08
2019-03-12T04:18:32.467Z,1004.09
2019-03-12T04:19:32.397Z,1004.07
2019-03-12T04:20:32.385Z,1004.09
2019-03-12T04:21:32.407Z,1004.09
2019-03-12T04:22:32.367Z,1004.04
2019-03-12T04:23:32.355Z,1004.04
2019-03-12T04:24:32.378Z,1004.02
2019-03-12T04:25:32.331Z,1004.02
2019-03-12T04:26:32.316Z,1004.06
2019-03-12T04:27:32.320Z,1004.05
2019-03-12T04:28:32.295Z,1003.97
2019-03-12T04:29:32.281Z,1003.96
2019-03-12T04:30:32.332Z,1004.05
2019-03-12T04:31:32.280Z,1004.03
2019-03-12T04:32:32.249Z,1004.02
2019-03-12T04:33:39.798Z,1003.93
2019-03-12T04:34:39.780Z,1003.93
2019-03-12T04:35:40.897Z,1003.91
2019-03-12T04:36:39.772Z,1003.97
2019-03-12T04:37:41.398Z,1003.93
2019-03-12T04:38:40.755Z,1003.89
2019-03-12T04:39:39.734Z,1003.94
2019-03-12T04:40:32.164Z,1003.92
2019-03-12T04:41:32.452Z,1003.89
2019-03-12T04:42:32.166Z,1003.92
2019-03-12T04:43:32.147Z,1003.87
2019-03-12T04:44:32.135Z,1003.88
2019-03-12T04:45:32.213Z,1003.84
2019-03-12T04:46:32.208Z,1003.80
2019-03-12T04:47:32.153Z,1003.83
2019-03-12T04:48:32.137Z,1003.76
2019-03-12T04:49:32.088Z,1003.77
2019-03-12T04:50:32.078Z,1003.75
2019-03-12T04:51:32.064Z,1003.74
2019-03-12T04:52:32.074Z,1003.70
2019-03-12T04:53:32.080Z,1003.70
2019-03-12T04:54:32.027Z,1003.64
2019-03-12T04:55:32.051Z,1003.61
2019-03-12T04:56:32.030Z,1003.63
2019-03-12T04:57:31.988Z,1003.68
2019-03-12T04:58:32.004Z,1003.63
2019-03-12T04:59:32.002Z,1003.61
2019-03-12T05:00:31.991Z,1003.66
2019-03-12T05:01:31.959Z,1003.58
2019-03-12T05:02:31.950Z,1003.61
2019-03-12T05:03:31.926Z,1003.60
2019-03-12T05:04:31.947Z,1003.53
2019-03-12T05:05:31.955Z,1003.61
2019-03-12T05:06:31.893Z,1003.58
2019-03-12T05:07:31.972Z,1003.57
2019-03-12T05:08:31.890Z,1003.57
2019-03-12T05:09:31.876Z,1003.51
2019-03-12T05:10:31.888Z,1003.46
2019-03-12T05:11:31.973Z,1003.51
2019-03-12T05:12:31.838Z,1003.48
2019-03-12T05:13:31.831Z,1003.41
2019-03-12T05:14:31.810Z,1003.42
2019-03-12T05:15:31.793Z,1003.41
2019-03-12T05:16:31.802Z,1003.38
2019-03-12T05:17:31.821Z,1003.35
2019-03-12T05:18:31.759Z,1003.40
2019-03-12T05:19:31.746Z,1003.35
2019-03-12T05:20:31.735Z,1003.30
2019-03-12T05:21:31.768Z,1003.26
2019-03-12T05:22:31.720Z,1003.22
2019-03-12T05:23:31.765Z,1003.26
2019-03-12T05:24:31.723Z,1003.26
2019-03-12T05:25:31.683Z,1003.20
2019-03-12T05:26:31.673Z,1003.22
2019-03-12T05:27:31.698Z,1003.17
2019-03-12T05:28:31.658Z,1003.16
2019-03-12T05:29:31.704Z,1003.15
2019-03-12T05:30:31.633Z,1003.04
2019-03-12T05:31:31.625Z,1003.02
2019-03-12T05:32:31.615Z,1003.04
2019-03-12T05:33:31.625Z,1003.00
2019-03-12T05:34:31.590Z,1003.06
2019-03-12T05:35:31.630Z,1003.01
2019-03-12T05:36:31.567Z,1002.96
2019-03-12T05:37:31.558Z,1002.93
2019-03-12T05:38:31.548Z,1002.96
2019-03-12T05:39:31.546Z,1002.85
2019-03-12T05:40:31.523Z,1002.97
2019-03-12T05:41:31.555Z,1003.00
2019-03-12T05:42:31.510Z,1002.99
2019-03-12T05:43:31.493Z,1002.95
2019-03-12T05:44:31.516Z,1002.93
2019-03-12T05:45:31.471Z,1002.91
2019-03-12T05:46:31.490Z,1002.91
2019-03-12T05:47:31.494Z,1002.95
2019-03-12T05:48:31.447Z,1002.90
2019-03-12T05:49:31.427Z,1002.92
2019-03-12T05:50:31.432Z,1002.88
2019-03-12T05:51:31.447Z,1002.82
2019-03-12T05:52:31.405Z,1002.89
2019-03-12T05:53:31.449Z,1002.85
2019-03-12T05:54:31.386Z,1002.82
2019-03-12T05:55:31.361Z,1002.80
2019-03-12T05:56:31.353Z,1002.76
2019-03-12T05:57:31.354Z,1002.78
2019-03-12T05:58:31.333Z,1002.77
2019-03-12T05:59:31.374Z,1002.79
2019-03-12T06:00:31.321Z,1002.71
2019-03-12T06:01:31.298Z,1002.64
2019-03-12T06:02:31.288Z,1002.63
2019-03-12T06:03:31.376Z,1002.53
2019-03-12T06:04:31.271Z,1002.53
2019-03-12T06:05:31.286Z,1002.50
2019-03-12T06:06:31.260Z,1002.52
2019-03-12T06:07:31.236Z,1002.59
2019-03-12T06:08:31.230Z,1002.52
2019-03-12T06:09:31.212Z,1002.50
2019-03-12T06:10:31.201Z,1002.46
2019-03-12T06:11:31.240Z,1002.46
2019-03-12T06:12:31.179Z,1002.32
2019-03-12T06:13:31.182Z,1002.39
2019-03-12T06:14:31.156Z,1002.47
2019-03-12T06:15:31.146Z,1002.33
2019-03-12T06:16:31.134Z,1002.30
2019-03-12T06:17:31.170Z,1002.26
2019-03-12T06:18:31.112Z,1002.27
2019-03-12T06:19:31.124Z,1002.27
2019-03-12T06:20:31.093Z,1002.28
2019-03-12T06:21:31.083Z,1002.29
2019-03-12T06:22:31.069Z,1002.24
2019-03-12T06:23:31.101Z,1002.21
2019-03-12T06:24:31.050Z,1002.20
2019-03-12T06:25:31.055Z,1002.23
2019-03-12T06:26:31.026Z,1002.09
2019-03-12T06:27:31.017Z,1002.15
2019-03-12T06:28:31.343Z,1002.18
2019-03-12T06:29:31.043Z,1002.19
2019-03-12T06:30:30.983Z,1002.18
2019-03-12T06:31:30.990Z,1002.20
2019-03-12T06:32:30.960Z,1002.20
2019-03-12T06:33:30.952Z,1002.11
2019-03-12T06:34:30.945Z,1002.12
2019-03-12T06:35:30.965Z,1002.17
2019-03-12T06:36:30.917Z,1002.13
2019-03-12T06:37:30.940Z,1002.17
2019-03-12T06:38:30.895Z,1002.16
2019-03-12T06:39:30.884Z,1002.13
2019-03-12T06:40:30.873Z,1002.03
2019-03-12T06:41:30.902Z,1001.97
2019-03-12T06:42:30.851Z,1001.98
2019-03-12T06:43:30.861Z,1001.99
2019-03-12T06:44:30.828Z,1001.96
2019-03-12T06:45:30.820Z,1001.85
2019-03-12T06:46:30.807Z,1001.82
2019-03-12T06:47:30.829Z,1001.83
2019-03-12T06:48:30.792Z,1001.78
2019-03-12T06:49:30.790Z,1001.76
2019-03-12T06:50:30.778Z,1001.77
2019-03-12T06:51:30.760Z,1001.74
2019-03-12T06:52:30.745Z,1001.77
2019-03-12T06:53:30.783Z,1001.79
2019-03-12T06:54:30.733Z,1001.75
2019-03-12T06:55:30.714Z,1001.81
2019-03-12T06:56:30.705Z,1001.75
2019-03-12T06:57:30.721Z,1001.81
2019-03-12T06:58:30.699Z,1001.77
2019-03-12T06:59:30.709Z,1001.72
2019-03-12T07:00:30.664Z,1001.73
2019-03-12T07:01:30.651Z,1001.71
2019-03-12T07:02:30.652Z,1001.66
2019-03-12T07:03:30.677Z,1001.65
2019-03-12T07:04:30.614Z,1001.62
2019-03-12T07:05:30.664Z,1001.57
2019-03-12T07:06:30.653Z,1001.57
2019-03-12T07:07:30.611Z,1001.53
2019-03-12T07:08:30.592Z,1001.57
2019-03-12T07:09:30.563Z,1001.44
2019-03-12T07:10:30.554Z,1001.51
2019-03-12T07:11:30.588Z,1001.52
2019-03-12T07:12:30.536Z,1001.49
2019-03-12T07:13:30.520Z,1001.50
2019-03-12T07:14:30.522Z,1001.47
2019-03-12T07:15:30.495Z,1001.49
2019-03-12T07:16:30.488Z,1001.46
2019-03-12T07:17:30.506Z,1001.44
2019-03-12T07:18:30.466Z,1001.47
2019-03-12T07:19:30.464Z,1001.38
2019-03-12T07:20:30.487Z,1001.33
2019-03-12T07:21:30.474Z,1001.36
2019-03-12T07:22:30.417Z,1001.39
2019-03-12T07:23:30.476Z,1001.34
2019-03-12T07:24:30.402Z,1001.31
2019-03-12T07:25:30.388Z,1001.28
2019-03-12T07:26:30.376Z,1001.32
2019-03-12T07:27:30.417Z,1001.30
2019-03-12T07:28:30.356Z,1001.22
2019-03-12T07:29:30.372Z,1001.25
2019-03-12T07:30:30.335Z,1001.16
2019-03-12T07:31:30.323Z,1001.16
2019-03-12T07:32:30.314Z,1001.10
2019-03-12T07:33:30.337Z,1001.15
2019-03-12T07:34:36.769Z,1001.14
2019-03-12T07:35:31.429Z,1000.99
2019-03-12T07:36:30.282Z,1000.99
2019-03-12T07:37:30.266Z,1001.05
2019-03-12T07:38:30.247Z,1001.02
2019-03-12T07:39:30.232Z,1001.01
2019-03-12T07:40:30.242Z,1001.02
2019-03-12T07:41:32.722Z,1001.02
2019-03-12T07:42:30.975Z,1000.95
2019-03-12T07:43:30.433Z,1001.02
2019-03-12T07:44:30.345Z,1000.99
2019-03-12T07:45:30.191Z,1000.97
2019-03-12T07:46:30.158Z,1000.94
2019-03-12T07:47:35.792Z,1000.91
2019-03-12T07:48:31.136Z,1000.88
2019-03-12T07:49:30.124Z,1000.93
2019-03-12T07:50:30.132Z,1000.86
2019-03-12T07:51:30.106Z,1000.91
2019-03-12T07:52:30.097Z,1000.89
2019-03-12T07:53:30.121Z,1000.91
2019-03-12T07:54:30.095Z,1000.94
2019-03-12T07:55:30.097Z,1000.79
2019-03-12T07:56:30.056Z,1000.79
2019-03-12T07:57:30.040Z,1000.78
2019-03-12T07:58:35.744Z,1000.84
2019-03-12T07:59:31.055Z,1000.85
2019-03-12T08:00:30.029Z,1000.80
2019-03-12T08:01:30.003Z,1000.80
2019-03-12T08:02:29.990Z,1000.81
2019-03-12T08:03:29.974Z,1000.67
2019-03-12T08:04:29.961Z,1000.75
2019-03-12T08:05:29.986Z,1000.71
2019-03-12T08:06:29.952Z,1000.65
2019-03-12T08:07:29.933Z,1000.66
2019-03-12T08:08:29.922Z,1000.67
2019-03-12T08:09:29.942Z,1000.61
2019-03-12T08:10:29.903Z,1000.66
2019-03-12T08:11:29.951Z,1000.65
2019-03-12T08:12:29.875Z,1000.57
2019-03-12T08:13:29.864Z,1000.61
2019-03-12T08:14:29.900Z,1000.58
2019-03-12T08:15:29.863Z,1000.51
2019-03-12T08:16:29.846Z,1000.42
2019-03-12T08:17:29.874Z,1000.45
2019-03-12T08:18:29.814Z,1000.42
2019-03-12T08:19:29.802Z,1000.42
2019-03-12T08:20:29.800Z,1000.34
2019-03-12T08:21:29.785Z,1000.40
2019-03-12T08:22:29.774Z,1000.26
2019-03-12T08:23:29.825Z,1000.24
2019-03-12T08:24:29.748Z,1000.25
2019-03-12T08:25:29.734Z,1000.21
2019-03-12T08:26:29.750Z,1000.21
2019-03-12T08:27:29.717Z,1000.13
2019-03-12T08:28:29.702Z,1000.19
2019-03-12T08:29:29.743Z,1000.15
2019-03-12T08:30:29.681Z,1000.12
2019-03-12T08:31:29.674Z,1000.13
2019-03-12T08:32:29.658Z,1000.06
2019-03-12T08:33:29.700Z,1000.04
2019-03-12T08:34:29.637Z,1000.11
2019-03-12T08:35:29.666Z,1000.00
2019-03-12T08:36:29.646Z,1000.07
2019-03-12T08:37:29.605Z,1000.00
2019-03-12T08:38:29.591Z,1000.06
2019-03-12T08:39:29.619Z,1000.03
2019-03-12T08:40:29.576Z,1000.02
2019-03-12T08:41:29.597Z,999.91
2019-03-12T08:42:29.548Z,999.91
2019-03-12T08:43:29.539Z,999.90
2019-03-12T08:44:29.541Z,1000.01
2019-03-12T08:45:29.558Z,999.84
2019-03-12T08:46:29.514Z,999.80
2019-03-12T08:47:29.530Z,999.82
2019-03-12T08:48:29.488Z,999.80
2019-03-12T08:49:29.479Z,999.77
2019-03-12T08:50:29.460Z,999.71
2019-03-12T08:51:29.489Z,999.64
2019-03-12T08:52:29.443Z,999.68
2019-03-12T08:53:29.483Z,999.66
2019-03-12T08:54:29.421Z,999.65
2019-03-12T08:55:29.416Z,999.64
2019-03-12T08:56:32.539Z,999.74
2019-03-12T08:57:29.402Z,999.67
2019-03-12T08:58:29.382Z,999.65
2019-03-12T08:59:29.413Z,999.61
2019-03-12T09:00:29.352Z,999.59
2019-03-12T09:01:29.346Z,999.67
2019-03-12T09:02:29.344Z,999.55
2019-03-12T09:03:29.342Z,999.47
2019-03-12T09:04:29.320Z,999.47
2019-03-12T09:05:29.351Z,999.53
2019-03-12T09:06:29.298Z,999.35
2019-03-12T09:07:29.275Z,999.50
2019-03-12T09:08:29.265Z,999.42
2019-03-12T09:09:29.278Z,999.44
2019-03-12T09:10:29.243Z,999.47
2019-03-12T09:11:29.292Z,999.39
2019-03-12T09:12:29.225Z,999.39
2019-03-12T09:13:29.215Z,999.36
2019-03-12T09:14:29.211Z,999.36
2019-03-12T09:15:29.214Z,999.33
2019-03-12T09:16:29.182Z,999.30
2019-03-12T09:17:29.209Z,999.30
2019-03-12T09:18:29.167Z,999.28
2019-03-12T09:19:29.226Z,999.20
2019-03-12T09:20:29.136Z,999.20
2019-03-12T09:21:29.144Z,999.13
2019-03-12T09:22:29.113Z,999.17
2019-03-12T09:23:29.155Z,999.17
2019-03-12T09:24:29.096Z,999.09
2019-03-12T09:25:29.079Z,999.07
2019-03-12T09:26:29.067Z,999.08
2019-03-12T09:27:29.058Z,999.02
2019-03-12T09:28:29.082Z,999.02
2019-03-12T09:29:29.075Z,998.96
2019-03-12T09:30:29.023Z,998.99
2019-03-12T09:31:29.013Z,998.99
2019-03-12T09:32:29.000Z,998.96
2019-03-12T09:33:28.990Z,998.90
2019-03-12T09:34:29.014Z,998.89
2019-03-12T09:35:29.017Z,998.88
2019-03-12T09:36:28.956Z,998.79
2019-03-12T09:37:28.946Z,998.76
2019-03-12T09:38:28.935Z,998.81
2019-03-12T09:39:29.047Z,998.65
2019-03-12T09:40:28.917Z,998.67
2019-03-12T09:41:28.971Z,998.61
2019-03-12T09:42:28.896Z,998.56
2019-03-12T09:43:28.882Z,998.53
2019-03-12T09:44:28.869Z,998.49
2019-03-12T09:45:28.857Z,998.56
2019-03-12T09:46:28.850Z,998.47
2019-03-12T09:47:28.902Z,998.49
2019-03-12T09:48:28.827Z,998.40
2019-03-12T09:49:28.816Z,998.52
2019-03-12T09:50:28.816Z,998.53
2019-03-12T09:51:28.795Z,998.38
2019-03-12T09:52:28.786Z,998.35
2019-03-12T09:53:28.816Z,998.30
2019-03-12T09:54:28.759Z,998.34
2019-03-12T09:55:28.774Z,998.28
2019-03-12T09:56:28.739Z,998.22
2019-03-12T09:57:28.731Z,998.24
2019-03-12T09:58:28.720Z,998.23
2019-03-12T09:59:28.785Z,998.19
2019-03-12T10:00:28.697Z,998.19
2019-03-12T10:01:28.702Z,998.19
2019-03-12T10:02:28.672Z,998.20
2019-03-12T10:03:28.662Z,998.20
2019-03-12T10:04:28.862Z,998.15
2019-03-12T10:05:28.712Z,998.18
2019-03-12T10:06:28.631Z,998.19
2019-03-12T10:07:28.618Z,998.15
2019-03-12T10:08:28.609Z,998.10
2019-03-12T10:09:28.608Z,998.11
2019-03-12T10:10:28.586Z,998.10
2019-03-12T10:11:28.633Z,997.95
2019-03-12T10:12:28.568Z,998.00
2019-03-12T10:13:28.555Z,997.87
2019-03-12T10:14:28.567Z,997.87
2019-03-12T10:15:28.537Z,997.88
2019-03-12T10:16:28.523Z,997.90
2019-03-12T10:17:28.600Z,997.88
2019-03-12T10:18:28.501Z,997.90
2019-03-12T10:19:28.491Z,997.88
2019-03-12T10:20:28.487Z,997.80
2019-03-12T10:21:28.469Z,997.86
2019-03-12T10:22:28.454Z,997.70
2019-03-12T10:23:28.523Z,997.74
2019-03-12T10:24:28.869Z,997.68
2019-03-12T10:25:28.428Z,997.67
2019-03-12T10:26:28.425Z,997.67
2019-03-12T10:27:28.435Z,997.62
2019-03-12T10:28:28.389Z,997.68
2019-03-12T10:29:28.448Z,997.51
2019-03-12T10:30:28.374Z,997.55
2019-03-12T10:31:28.360Z,997.51
2019-03-12T10:32:28.351Z,997.55
2019-03-12T10:33:28.338Z,997.45
2019-03-12T10:34:29.886Z,997.45
2019-03-12T10:35:28.374Z,997.47
2019-03-12T10:36:30.927Z,997.41
2019-03-12T10:37:28.295Z,997.39
2019-03-12T10:38:28.281Z,997.27
2019-03-12T10:39:28.276Z,997.28
2019-03-12T10:40:28.260Z,997.21
2019-03-12T10:41:28.316Z,997.20
2019-03-12T10:42:28.272Z,997.22
2019-03-12T10:43:28.225Z,997.21
2019-03-12T10:44:28.215Z,997.08
2019-03-12T10:45:28.220Z,997.13
2019-03-12T10:46:28.197Z,997.11
2019-03-12T10:47:28.236Z,997.08
2019-03-12T10:48:28.184Z,997.19
2019-03-12T10:49:37.424Z,997.08
2019-03-12T10:50:29.164Z,996.94
2019-03-12T10:51:28.146Z,996.92
2019-03-12T10:52:28.135Z,996.93
2019-03-12T10:53:28.184Z,996.82
2019-03-12T10:54:28.122Z,996.77
2019-03-12T10:55:28.103Z,996.76
2019-03-12T10:56:28.085Z,996.76
2019-03-12T10:57:28.079Z,996.66
2019-03-12T10:58:28.064Z,996.66
2019-03-12T10:59:28.105Z,996.65
2019-03-12T11:00:28.058Z,996.70
2019-03-12T11:01:28.039Z,996.66
2019-03-12T11:02:28.020Z,996.56
2019-03-12T11:03:28.065Z,996.58
2019-03-12T11:04:27.997Z,996.59
2019-03-12T11:05:28.035Z,996.46
2019-03-12T11:06:27.996Z,996.44
2019-03-12T11:07:27.972Z,996.41
2019-03-12T11:08:27.951Z,996.41
2019-03-12T11:09:27.939Z,996.28
2019-03-12T11:10:27.931Z,996.26
2019-03-12T11:11:27.986Z,996.24
2019-03-12T11:12:27.927Z,996.17
2019-03-12T11:13:27.899Z,996.22
2019-03-12T11:14:27.888Z,996.12
2019-03-12T11:15:27.878Z,996.12
2019-03-12T11:16:27.861Z,996.19
2019-03-12T11:17:27.914Z,996.09
2019-03-12T11:18:27.860Z,996.11
2019-03-12T11:19:27.833Z,996.25
2019-03-12T11:20:27.817Z,996.14
2019-03-12T11:21:27.814Z,996.14
2019-03-12T11:22:27.795Z,996.09
2019-03-12T11:23:27.843Z,996.04
2019-03-12T11:24:27.799Z,996.13
2019-03-12T11:25:28.309Z,996.09
2019-03-12T11:26:27.750Z,996.06
2019-03-12T11:27:27.741Z,996.15
2019-03-12T11:28:27.750Z,996.18
2019-03-12T11:29:27.788Z,996.14
2019-03-12T11:30:27.715Z,996.11
2019-03-12T11:31:27.698Z,996.09
2019-03-12T11:32:27.681Z,996.02
2019-03-12T11:33:27.670Z,996.05
2019-03-12T11:34:27.658Z,995.99
2019-03-12T11:35:38.339Z,995.94
2019-03-12T11:36:28.656Z,995.80
2019-03-12T11:37:27.636Z,995.88
2019-03-12T11:38:27.617Z,995.80
2019-03-12T11:39:27.612Z,995.74
2019-03-12T11:40:32.012Z,995.83
2019-03-12T11:41:28.633Z,995.86
2019-03-12T11:42:27.575Z,995.77
2019-03-12T11:43:27.609Z,995.73
2019-03-12T11:44:27.554Z,995.69
2019-03-12T11:45:36.268Z,995.69
2019-03-12T11:46:28.533Z,995.66
2019-03-12T11:47:27.605Z,995.68
2019-03-12T11:48:27.515Z,995.75
2019-03-12T11:49:27.518Z,995.75
2019-03-12T11:50:27.529Z,995.56
2019-03-12T11:51:27.471Z,995.65
2019-03-12T11:52:27.465Z,995.75
2019-03-12T11:53:27.511Z,995.67
2019-03-12T11:54:27.438Z,995.53
2019-03-12T11:55:27.456Z,995.47
2019-03-12T11:56:27.452Z,995.46
2019-03-12T11:57:27.421Z,995.36
2019-03-12T11:58:27.423Z,995.38
2019-03-12T11:59:27.451Z,995.35
2019-03-12T12:00:27.814Z,995.25
2019-03-12T12:01:27.362Z,995.27
2019-03-12T12:02:27.350Z,995.43
2019-03-12T12:03:27.362Z,995.17
2019-03-12T12:04:27.333Z,995.03
2019-03-12T12:05:27.367Z,995.27
2019-03-12T12:06:27.314Z,995.10
2019-03-12T12:07:27.298Z,995.19
2019-03-12T12:08:27.300Z,995.02
2019-03-12T12:09:27.576Z,994.99
2019-03-12T12:10:27.304Z,994.99
2019-03-12T12:11:27.284Z,994.99
2019-03-12T12:12:27.247Z,994.95